Time;durP1;ratioP1;P1;durP2;ratioP2;P2;SDS_P1;SDS_P2;PMS_P1;PMS_P2;Temp;Humidity;BMP_temperature;BMP_pressure;BME280_temperature;BME280_humidity;BME280_pressure;Samples;Min_cycle;Max_cycle;Signal;HPM_P1;HPM_P2
2022/12/01 00:01:23;;;;;;;14.82;2.50;;;21.80;78.60;;;;;;5013458;28;20025;-68
2022/12/01 00:03:50;;;;;;;11.98;1.92;;;21.90;77.30;;;;;;5009756;28;20041;-66
2022/12/01 00:06:19;;;;;;;9.98;2.60;;;22.00;76.60;;;;;;5010867;28;20025;-68
2022/12/01 00:11:36;;;;;;;11.27;1.58;;;22.10;75.90;;;;;;5009285;28;20363;-69
2022/12/01 00:14:04;;;;;;;9.88;2.25;;;22.10;76.40;;;;;;5007311;28;20025;-70
2022/12/01 00:16:32;;;;;;;11.38;2.28;;;22.10;76.40;;;;;;5007017;28;20498;-69
2022/12/01 00:19:00;;;;;;;13.00;1.98;;;22.20;76.00;;;;;;5001338;28;20053;-68
2022/12/01 00:21:27;;;;;;;14.15;1.90;;;22.30;75.50;;;;;;5007237;28;20120;-69
2022/12/01 00:23:57;;;;;;;10.93;1.98;;;22.30;75.00;;;;;;5018890;28;20034;-70
2022/12/01 00:26:25;;;;;;;10.05;1.95;;;22.30;75.00;;;;;;5005927;28;20021;-69
2022/12/01 00:28:58;;;;;;;11.27;2.75;;;22.10;73.90;;;;;;5008509;28;20041;-68
2022/12/01 00:31:26;;;;;;;14.02;2.28;;;21.90;74.50;;;;;;5010269;28;20026;-68
2022/12/01 00:33:53;;;;;;;10.52;1.77;;;21.90;74.00;;;;;;5005348;28;20045;-73
2022/12/01 00:36:21;;;;;;;10.38;1.60;;;21.80;75.00;;;;;;5006324;28;20084;-70
2022/12/01 00:38:55;;;;;;;9.07;2.33;;;21.90;75.50;;;;;;5005555;28;20038;-65
2022/12/01 00:41:25;;;;;;;12.35;2.13;;;21.80;73.20;;;;;;5005391;28;20022;-66
2022/12/01 00:43:52;;;;;;;6.80;1.92;;;21.60;74.50;;;;;;5007020;28;20076;-66
2022/12/01 00:46:20;;;;;;;16.33;2.10;;;21.50;75.50;;;;;;5002924;28;20029;-67
2022/12/01 00:48:47;;;;;;;12.77;2.78;;;21.30;76.00;;;;;;5006951;28;20203;-66
2022/12/01 00:51:15;;;;;;;8.40;2.30;;;21.10;76.50;;;;;;5013641;28;20018;-69
2022/12/01 00:53:42;;;;;;;15.10;2.35;;;20.90;76.10;;;;;;5008136;28;20469;-67
2022/12/01 00:56:09;;;;;;;9.68;1.95;;;20.70;77.10;;;;;;5008988;28;20119;-67
2022/12/01 00:58:36;;;;;;;9.13;1.75;;;20.70;78.50;;;;;;5007099;28;20034;-67
2022/12/01 01:01:04;;;;;;;12.65;1.90;;;20.60;78.80;;;;;;5003472;28;20036;-67
2022/12/01 01:03:33;;;;;;;11.80;1.92;;;20.50;80.50;;;;;;5005618;28;21644;-68
2022/12/01 01:06:11;;;;;;;13.13;2.70;;;20.40;81.60;;;;;;5011828;28;20475;-68
2022/12/01 01:08:39;;;;;;;8.55;1.48;;;20.40;82.50;;;;;;5012078;28;20108;-69
2022/12/01 01:11:08;;;;;;;14.40;2.85;;;20.10;84.20;;;;;;5011564;28;20041;-69
2022/12/01 01:13:36;;;;;;;11.95;1.98;;;20.00;86.20;;;;;;5013367;28;20116;-68
2022/12/01 01:16:06;;;;;;;10.43;1.92;;;19.90;87.70;;;;;;5013926;28;20406;-68
2022/12/01 01:18:34;;;;;;;13.73;2.80;;;19.80;89.10;;;;;;5011040;28;20087;-68
2022/12/01 01:21:05;;;;;;;10.65;2.03;;;19.70;89.60;;;;;;5005677;28;20018;-68
2022/12/01 01:23:32;;;;;;;9.23;2.35;;;19.60;90.00;;;;;;5006300;28;20130;-68
2022/12/01 01:26:05;;;;;;;8.88;1.63;;;19.50;90.50;;;;;;5015212;28;20048;-68
2022/12/01 01:28:32;;;;;;;11.30;1.98;;;19.50;90.80;;;;;;5018927;28;20101;-68
2022/12/01 01:31:04;;;;;;;12.30;2.40;;;19.40;91.10;;;;;;5011573;28;20049;-66
2022/12/01 01:33:31;;;;;;;8.60;1.92;;;19.30;91.40;;;;;;5012305;28;20454;-66
2022/12/01 01:36:02;;;;;;;11.10;1.77;;;19.30;90.80;;;;;;5011833;28;20137;-68
2022/12/01 01:38:29;;;;;;;13.00;3.03;;;19.30;91.10;;;;;;5009255;28;20454;-67
2022/12/01 01:40:57;;;;;;;11.57;2.10;;;19.30;91.80;;;;;;5006765;28;20053;-68
2022/12/01 01:43:50;;;;;;;6.45;2.13;;;19.30;91.00;;;;;;5002807;28;20025;-66
2022/12/01 01:46:23;;;;;;;9.65;1.67;;;19.30;90.90;;;;;;5007137;28;20440;-67
2022/12/01 01:49:15;;;;;;;12.45;1.90;;;19.40;91.00;;;;;;5008501;28;20487;-66
2022/12/01 01:51:43;;;;;;;16.08;2.80;;;19.50;90.90;;;;;;5006245;28;20026;-68
2022/12/01 01:54:27;;;;;;;14.60;2.17;;;19.60;90.80;;;;;;5003338;28;20670;-65
2022/12/01 01:56:56;;;;;;;14.32;1.90;;;19.70;90.30;;;;;;5005098;28;20049;-65
2022/12/01 01:59:30;;;;;;;10.35;2.28;;;19.90;89.50;;;;;;5006702;28;20041;-66
2022/12/01 02:02:07;;;;;;;10.43;2.63;;;20.10;87.60;;;;;;5007848;28;20141;-65
2022/12/01 02:04:46;;;;;;;17.20;2.10;;;20.30;88.90;;;;;;5003712;28;20458;-66
2022/12/01 02:07:17;;;;;;;8.38;2.35;;;20.60;86.30;;;;;;5007507;28;20025;-66
2022/12/01 02:09:45;;;;;;;9.90;2.97;;;20.80;86.30;;;;;;5016822;28;20537;-66
2022/12/01 02:12:25;;;;;;;15.13;2.40;;;20.90;83.80;;;;;;5003889;28;20030;-66
2022/12/01 02:15:18;;;;;;;14.07;2.20;;;21.00;83.30;;;;;;5009886;28;20022;-67
2022/12/01 02:18:09;;;;;;;8.65;1.83;;;21.10;84.00;;;;;;5007024;28;20038;-67
2022/12/01 02:20:55;;;;;;;17.48;1.80;;;21.50;80.70;;;;;;5013230;28;20029;-67
2022/12/01 02:23:29;;;;;;;10.65;2.05;;;21.60;80.30;;;;;;5009727;28;20431;-67
2022/12/01 02:26:20;;;;;;;9.70;2.10;;;21.40;80.20;;;;;;5019227;28;20026;-67
2022/12/01 02:29:17;;;;;;;9.90;2.00;;;21.50;79.10;;;;;;5006526;28;20036;-67
2022/12/01 02:31:47;;;;;;;6.88;1.83;;;21.80;79.30;;;;;;5013596;28;20097;-67
2022/12/01 02:34:41;;;;;;;13.27;1.80;;;22.10;77.80;;;;;;5010183;28;20450;-67
2022/12/01 02:37:20;;;;;;;15.30;2.20;;;22.30;77.20;;;;;;5013620;28;21109;-67
2022/12/01 02:39:57;;;;;;;12.57;2.13;;;22.30;77.30;;;;;;5012070;28;20329;-67
2022/12/01 02:43:03;;;;;;;11.40;2.03;;;22.40;74.90;;;;;;5007290;28;20080;-68
2022/12/01 02:45:43;;;;;;;8.73;2.38;;;22.60;76.40;;;;;;5012774;28;20041;-69
2022/12/01 02:48:18;;;;;;;10.18;1.77;;;22.60;74.70;;;;;;5007467;28;20029;-68
2022/12/01 02:50:46;;;;;;;12.65;2.22;;;22.50;73.20;;;;;;5009906;28;20033;-68
2022/12/01 02:53:17;;;;;;;11.70;3.22;;;22.80;73.40;;;;;;5010299;28;20573;-69
2022/12/01 02:55:51;;;;;;;10.80;1.75;;;23.10;72.70;;;;;;5009527;28;20029;-69
2022/12/01 02:58:18;;;;;;;11.10;1.80;;;23.30;70.80;;;;;;5010646;28;20062;-70
2022/12/01 03:01:13;;;;;;;6.15;1.77;;;23.30;70.60;;;;;;5008384;28;20032;-70
2022/12/01 03:03:51;;;;;;;8.23;1.60;;;24.10;69.80;;;;;;5007447;28;20053;-70
2022/12/01 03:06:33;;;;;;;11.52;2.50;;;24.60;66.80;;;;;;5009401;28;20017;-69
2022/12/01 03:09:29;;;;;;;9.15;2.00;;;24.80;64.80;;;;;;5011430;28;20058;-69
2022/12/01 03:12:13;;;;;;;8.25;1.88;;;24.80;63.90;;;;;;5010989;28;20026;-69
2022/12/01 03:14:55;;;;;;;;;;;24.50;64.30;;;;;;5009708;28;20043;-69
2022/12/01 03:17:30;;;;;;;11.02;2.17;;;24.20;66.00;;;;;;5004125;28;19909;-70
2022/12/01 03:20:22;;;;;;;9.48;2.53;;;24.40;64.50;;;;;;5018692;28;20369;-68
2022/12/01 03:22:58;;;;;;;9.18;1.52;;;24.30;66.00;;;;;;5003798;28;20038;-69
2022/12/01 03:25:29;;;;;;;8.63;2.35;;;24.50;64.70;;;;;;5011753;28;20522;-69
2022/12/01 03:27:58;;;;;;;9.43;1.67;;;24.40;65.60;;;;;;5012750;28;20037;-68
2022/12/01 03:30:26;;;;;;;9.82;2.25;;;24.40;64.60;;;;;;5006237;28;20088;-68
2022/12/01 03:33:08;;;;;;;9.52;2.92;;;24.20;63.70;;;;;;5007890;28;20514;-69
2022/12/01 03:35:47;;;;;;;7.53;2.28;;;23.90;66.40;;;;;;5006170;28;20091;-68
2022/12/01 03:38:25;;;;;;;8.00;2.03;;;23.60;65.80;;;;;;5009568;28;20084;-68
2022/12/01 03:40:58;;;;;;;10.10;2.42;;;23.00;66.80;;;;;;5009161;28;20041;-67
2022/12/01 03:43:31;;;;;;;8.88;2.33;;;22.90;67.60;;;;;;5007420;28;20021;-68
2022/12/01 03:46:08;;;;;;;9.00;1.85;;;23.00;68.10;;;;;;5013985;28;20026;-66
2022/12/01 03:48:36;;;;;;;8.05;1.80;;;23.00;67.70;;;;;;5014442;28;20034;-68
2022/12/01 03:51:15;;;;;;;13.85;1.90;;;23.00;67.60;;;;;;5010028;28;20041;-67
2022/12/01 03:53:58;;;;;;;12.55;1.98;;;22.80;67.30;;;;;;5008858;28;20506;-67
2022/12/01 03:56:31;;;;;;;11.02;1.98;;;22.70;68.90;;;;;;5014851;28;20096;-67
2022/12/01 03:59:02;;;;;;;13.15;1.80;;;22.60;68.30;;;;;;5011339;28;20057;-68
2022/12/01 04:01:33;;;;;;;9.43;1.77;;;22.60;69.00;;;;;;5009601;28;20350;-67
2022/12/01 04:04:10;;;;;;;11.10;1.88;;;22.80;68.80;;;;;;5011882;28;20061;-67
2022/12/01 04:06:40;;;;;;;13.70;2.22;;;22.80;68.20;;;;;;5020805;28;20068;-67
2022/12/01 04:09:07;;;;;;;7.85;2.33;;;22.80;68.40;;;;;;5010233;28;20033;-69
2022/12/01 04:14:19;;;;;;;5.82;1.90;;;23.60;65.90;;;;;;5010653;28;20079;-68
2022/12/01 04:16:47;;;;;;;13.43;2.00;;;23.60;65.10;;;;;;5008877;28;20052;-69
2022/12/01 04:19:14;;;;;;;6.63;2.38;;;23.90;63.40;;;;;;5008018;28;20904;-68
2022/12/01 04:21:42;;;;;;;8.75;2.03;;;24.20;63.60;;;;;;5014466;28;20462;-68
2022/12/01 04:24:10;;;;;;;11.90;2.17;;;24.30;63.20;;;;;;5014927;28;20064;-70
2022/12/01 04:26:38;;;;;;;12.27;2.15;;;24.40;62.90;;;;;;5012935;28;20129;-69
2022/12/01 04:29:08;;;;;;;9.95;1.73;;;24.60;63.00;;;;;;5013589;28;20021;-69
2022/12/01 04:31:35;;;;;;;11.45;2.28;;;24.90;62.40;;;;;;5018220;28;20407;-69
2022/12/01 04:34:04;;;;;;;9.90;1.67;;;24.90;61.20;;;;;;5012459;28;20905;-69
2022/12/01 04:36:33;;;;;;;5.57;1.95;;;24.80;61.10;;;;;;5020167;28;20116;-68
2022/12/01 04:39:01;;;;;;;11.23;2.58;;;24.90;60.60;;;;;;5009245;28;20033;-70
2022/12/01 04:41:28;;;;;;;23.17;1.92;;;25.00;60.30;;;;;;5005384;28;20029;-70
2022/12/01 04:43:56;;;;;;;7.15;1.88;;;25.20;60.80;;;;;;5007163;28;20036;-69
2022/12/01 04:46:24;;;;;;;8.75;1.52;;;25.20;60.00;;;;;;5025754;28;20502;-68
2022/12/01 04:48:51;;;;;;;6.28;1.58;;;24.50;60.00;;;;;;5008693;28;20029;-68
2022/12/01 04:51:21;;;;;;;6.22;1.88;;;24.00;61.30;;;;;;5012985;28;20037;-67
2022/12/01 04:53:49;;;;;;;7.47;1.65;;;23.80;61.60;;;;;;5005688;28;20114;-67
2022/12/01 04:56:17;;;;;;;7.57;1.63;;;23.60;63.20;;;;;;5013702;28;20594;-67
2022/12/01 04:58:45;;;;;;;7.47;1.85;;;23.50;62.80;;;;;;5016702;28;20045;-68
2022/12/01 05:01:14;;;;;;;6.47;1.98;;;23.40;62.80;;;;;;5008705;28;20499;-68
2022/12/01 05:03:44;;;;;;;7.30;1.83;;;23.40;64.10;;;;;;5008453;28;20040;-66
2022/12/01 05:06:14;;;;;;;7.03;1.90;;;23.50;62.10;;;;;;5010811;28;20053;-67
2022/12/01 05:08:42;;;;;;;9.02;2.28;;;23.40;61.70;;;;;;5007726;28;20434;-68
2022/12/01 05:11:11;;;;;;;10.02;2.13;;;23.50;62.90;;;;;;5007470;28;20366;-68
2022/12/01 05:13:40;;;;;;;9.45;1.98;;;23.70;63.20;;;;;;5009014;28;20049;-67
2022/12/01 05:16:12;;;;;;;8.13;1.95;;;23.60;64.10;;;;;;5008523;28;20018;-68
2022/12/01 05:18:40;;;;;;;5.53;1.38;;;23.20;63.20;;;;;;5015963;28;20083;-71
2022/12/01 05:21:09;;;;;;;12.65;1.77;;;23.10;64.20;;;;;;5010199;28;20030;-69
2022/12/01 05:23:38;;;;;;;10.15;1.70;;;23.10;65.60;;;;;;5010268;28;20690;-68
2022/12/01 05:26:08;;;;;;;10.70;1.85;;;23.20;64.20;;;;;;5013539;28;20502;-68
2022/12/01 05:28:36;;;;;;;13.40;2.13;;;23.60;65.00;;;;;;5008714;28;20548;-68
2022/12/01 05:31:03;;;;;;;5.72;1.75;;;23.50;63.80;;;;;;5008560;28;20029;-68
2022/12/01 05:33:31;;;;;;;8.80;1.80;;;23.60;63.40;;;;;;5008707;28;20761;-68
2022/12/01 05:35:58;;;;;;;7.22;1.60;;;23.60;62.50;;;;;;5009955;28;20754;-68
2022/12/01 05:38:25;;;;;;;6.88;1.60;;;23.70;62.70;;;;;;5007473;28;20037;-68
2022/12/01 05:40:55;;;;;;;8.07;1.60;;;23.50;64.20;;;;;;5007812;28;20024;-68
2022/12/01 05:43:23;;;;;;;11.70;1.63;;;23.40;63.20;;;;;;5007631;28;20069;-68
2022/12/01 05:45:50;;;;;;;7.82;2.20;;;23.00;64.90;;;;;;5008223;28;20036;-67
2022/12/01 05:48:18;;;;;;;5.28;1.48;;;22.80;64.70;;;;;;5008957;28;20033;-68
2022/12/01 05:50:45;;;;;;;9.68;2.20;;;22.60;65.20;;;;;;5009506;28;20026;-67
2022/12/01 05:53:14;;;;;;;12.15;3.15;;;22.40;66.10;;;;;;5011783;28;20025;-67
2022/12/01 05:55:41;;;;;;;11.15;1.70;;;22.60;65.90;;;;;;5012855;28;20028;-68
2022/12/01 05:58:09;;;;;;;6.50;2.13;;;22.60;66.20;;;;;;5004084;28;20041;-68
2022/12/01 06:00:37;;;;;;;11.88;1.50;;;22.60;66.20;;;;;;5011139;28;20656;-68
2022/12/01 06:03:05;;;;;;;10.18;1.80;;;22.30;66.30;;;;;;5010057;28;20109;-68
2022/12/01 06:05:32;;;;;;;9.38;1.83;;;22.30;66.80;;;;;;5012008;28;20026;-68
2022/12/01 06:07:59;;;;;;;11.93;2.05;;;22.10;67.50;;;;;;5009705;28;20112;-68
2022/12/01 06:10:27;;;;;;;10.07;1.90;;;22.10;67.70;;;;;;5015165;28;20032;-68
2022/12/01 06:12:55;;;;;;;6.35;2.03;;;22.10;67.60;;;;;;5004438;28;20033;-67
2022/12/01 06:15:23;;;;;;;8.98;1.70;;;22.00;66.80;;;;;;5008520;28;20041;-67
2022/12/01 06:17:50;;;;;;;8.18;1.55;;;22.00;67.70;;;;;;5009920;28;20041;-67
2022/12/01 06:20:17;;;;;;;6.28;2.45;;;22.00;68.20;;;;;;5014384;28;20032;-67
2022/12/01 06:22:44;;;;;;;5.15;1.75;;;22.10;67.70;;;;;;5015477;28;20029;-68
2022/12/01 06:25:11;;;;;;;17.02;1.98;;;22.00;68.00;;;;;;5003387;28;20030;-68
2022/12/01 06:27:39;;;;;;;8.52;2.78;;;22.00;65.90;;;;;;5009996;28;20018;-68
2022/12/01 06:30:07;;;;;;;13.05;3.00;;;22.10;64.80;;;;;;5013832;28;20668;-67
2022/12/01 06:32:34;;;;;;;8.35;2.03;;;22.30;65.80;;;;;;5016697;28;20081;-68
2022/12/01 06:35:02;;;;;;;12.98;1.60;;;22.30;65.30;;;;;;5007023;28;20050;-67
2022/12/01 06:37:29;;;;;;;9.35;1.50;;;22.20;65.70;;;;;;5010158;28;20033;-67
2022/12/01 06:39:56;;;;;;;7.35;1.40;;;22.10;65.20;;;;;;5013160;28;20382;-68
2022/12/01 06:42:23;;;;;;;6.95;1.38;;;22.10;65.50;;;;;;5012549;28;20114;-68
2022/12/01 06:44:50;;;;;;;5.15;1.48;;;22.00;65.40;;;;;;5014527;28;20064;-68
2022/12/01 06:47:18;;;;;;;11.82;1.77;;;21.90;65.70;;;;;;5013513;28;20026;-67
2022/12/01 06:49:45;;;;;;;10.80;2.30;;;21.80;65.40;;;;;;5008432;28;20103;-68
2022/12/01 06:52:12;;;;;;;6.88;1.73;;;21.90;65.30;;;;;;5012375;28;20056;-67
2022/12/01 06:54:39;;;;;;;7.90;1.60;;;21.90;64.30;;;;;;5009931;28;20026;-68
2022/12/01 06:57:06;;;;;;;4.95;1.38;;;21.60;64.30;;;;;;5020341;28;20233;-69
2022/12/01 06:59:34;;;;;;;4.32;1.55;;;21.40;65.10;;;;;;5014891;28;20442;-67
2022/12/01 07:02:04;;;;;;;7.10;1.73;;;21.20;66.80;;;;;;5009100;28;20041;-67
2022/12/01 07:04:31;;;;;;;7.15;1.65;;;21.10;67.50;;;;;;5008499;28;20026;-68
2022/12/01 07:06:58;;;;;;;7.55;1.77;;;21.10;67.80;;;;;;5001968;28;20022;-67
2022/12/01 07:09:25;;;;;;;5.72;2.28;;;21.10;68.40;;;;;;5005827;28;20038;-69
2022/12/01 07:11:53;;;;;;;7.50;1.95;;;21.00;67.10;;;;;;5012074;28;20022;-69
2022/12/01 07:14:25;;;;;;;11.27;1.95;;;20.90;67.30;;;;;;5010059;28;20089;-69
2022/12/01 07:16:53;;;;;;;8.88;1.42;;;20.90;67.30;;;;;;5006439;28;20034;-69
2022/12/01 07:19:20;;;;;;;8.77;1.50;;;20.80;67.80;;;;;;5012452;28;20030;-69
2022/12/01 07:21:47;;;;;;;6.72;1.70;;;20.80;68.50;;;;;;5020990;28;20038;-68
2022/12/01 07:24:15;;;;;;;9.57;1.70;;;20.90;67.40;;;;;;5013895;28;20109;-69
2022/12/01 07:26:43;;;;;;;7.80;1.95;;;20.90;67.80;;;;;;5008551;28;20033;-69
2022/12/01 07:29:11;;;;;;;4.40;1.30;;;21.00;68.10;;;;;;5019950;28;20030;-69
2022/12/01 07:31:38;;;;;;;6.97;1.33;;;21.10;67.10;;;;;;5009600;28;20088;-69
2022/12/01 07:34:06;;;;;;;6.85;1.20;;;21.10;66.90;;;;;;5011254;28;20124;-69
2022/12/01 07:36:33;;;;;;;6.47;1.65;;;21.10;66.10;;;;;;5011980;28;20021;-69
2022/12/01 07:39:05;;;;;;;6.18;1.23;;;21.10;66.20;;;;;;4996815;28;20046;-69
2022/12/01 07:41:32;;;;;;;8.20;1.90;;;20.90;67.20;;;;;;4998919;28;20030;-70
2022/12/01 07:44:00;;;;;;;5.32;1.27;;;20.70;68.50;;;;;;5006842;28;20092;-70
2022/12/01 07:46:28;;;;;;;3.80;0.82;;;20.70;69.30;;;;;;5012596;28;20536;-70
2022/12/01 07:48:57;;;;;;;9.13;1.27;;;20.70;66.70;;;;;;5016065;28;20080;-70
2022/12/01 07:51:25;;;;;;;7.43;1.50;;;20.60;66.40;;;;;;5004158;28;20030;-70
2022/12/01 07:53:53;;;;;;;8.32;1.20;;;20.50;67.60;;;;;;5014014;28;20037;-68
2022/12/01 07:56:22;;;;;;;6.88;1.40;;;20.40;68.00;;;;;;5006342;28;20484;-69
2022/12/01 07:58:50;;;;;;;4.35;1.10;;;20.40;68.90;;;;;;5004730;28;20609;-71
2022/12/01 08:01:19;;;;;;;5.85;1.10;;;20.20;68.60;;;;;;5010417;28;20030;-70
2022/12/01 08:03:51;;;;;;;4.28;1.38;;;20.20;69.20;;;;;;5011009;28;20899;-69
2022/12/01 08:06:20;;;;;;;11.10;2.17;;;20.00;69.90;;;;;;5013925;28;20734;-70
2022/12/01 08:08:48;;;;;;;9.30;1.33;;;19.90;70.70;;;;;;5022373;28;20046;-70
2022/12/01 08:11:28;;;;;;;6.72;1.73;;;19.80;71.80;;;;;;5008906;28;20030;-70
2022/12/01 08:13:56;;;;;;;7.28;1.35;;;19.70;72.60;;;;;;5010828;28;20096;-70
2022/12/01 08:16:24;;;;;;;5.05;1.02;;;19.60;73.70;;;;;;5012116;28;20032;-71
2022/12/01 08:18:52;;;;;;;9.05;1.75;;;19.50;73.90;;;;;;5012546;28;20045;-70
2022/12/01 08:21:21;;;;;;;4.65;1.23;;;19.40;74.20;;;;;;5010047;28;20530;-69
2022/12/01 08:23:53;;;;;;;5.72;1.27;;;19.30;74.50;;;;;;5014352;28;20489;-71
2022/12/01 08:26:21;;;;;;;13.73;1.52;;;19.20;75.30;;;;;;5011248;28;20423;-68
2022/12/01 08:28:49;;;;;;;7.53;1.55;;;19.10;75.70;;;;;;5014049;28;20053;-65
2022/12/01 08:31:25;;;;;;;9.40;1.60;;;19.00;76.30;;;;;;5008229;28;20038;-66
2022/12/01 08:33:54;;;;;;;6.68;1.90;;;18.90;76.80;;;;;;5015443;28;20046;-65
2022/12/01 08:36:22;;;;;;;5.15;1.40;;;18.80;77.60;;;;;;5013271;28;20056;-65
2022/12/01 08:38:52;;;;;;;8.75;1.50;;;18.70;78.50;;;;;;5019979;28;20038;-66
2022/12/01 08:41:20;;;;;;;7.43;1.90;;;18.60;79.40;;;;;;5003352;28;20022;-66
2022/12/01 08:43:47;;;;;;;9.60;2.30;;;18.50;80.00;;;;;;5025317;28;20031;-66
2022/12/01 08:46:15;;;;;;;8.20;1.90;;;18.40;80.90;;;;;;5011475;28;20029;-67
2022/12/01 08:48:42;;;;;;;5.72;1.17;;;18.30;81.80;;;;;;5010720;28;20090;-68
2022/12/01 08:51:11;;;;;;;4.95;1.65;;;18.20;82.50;;;;;;5008533;28;20064;-66
2022/12/01 08:53:40;;;;;;;7.57;1.60;;;18.10;83.50;;;;;;5009402;28;20569;-66
2022/12/01 08:56:19;;;;;;;10.60;1.63;;;18.10;83.90;;;;;;5010346;28;20048;-67
2022/12/01 08:58:47;;;;;;;5.15;2.35;;;18.00;85.00;;;;;;5007428;28;20084;-66
2022/12/01 09:01:16;;;;;;;6.80;2.33;;;17.90;86.00;;;;;;5011214;28;20043;-67
2022/12/01 09:03:43;;;;;;;10.82;1.85;;;17.80;87.60;;;;;;5015317;28;20077;-67
2022/12/01 09:06:14;;;;;;;9.52;2.10;;;17.80;88.40;;;;;;5013132;28;20384;-66
2022/12/01 09:08:42;;;;;;;7.45;2.05;;;17.70;88.60;;;;;;5008561;28;20026;-65
2022/12/01 09:11:17;;;;;;;7.50;2.03;;;17.70;90.30;;;;;;5017159;28;20032;-66
2022/12/01 09:13:46;;;;;;;13.50;2.03;;;17.60;90.80;;;;;;5013223;28;20034;-66
2022/12/01 09:16:17;;;;;;;10.32;2.40;;;17.60;91.10;;;;;;5017491;28;20025;-66
2022/12/01 09:18:46;;;;;;;11.13;1.90;;;17.60;92.00;;;;;;5020649;28;20057;-67
2022/12/01 09:21:20;;;;;;;6.13;2.05;;;17.50;92.50;;;;;;5019701;28;20029;-66
2022/12/01 09:23:47;;;;;;;7.28;1.67;;;17.50;93.50;;;;;;5008024;28;20037;-65
2022/12/01 09:26:17;;;;;;;9.93;2.75;;;17.50;94.00;;;;;;5011427;28;20052;-65
2022/12/01 09:28:46;;;;;;;8.90;1.88;;;17.40;94.50;;;;;;5018665;28;20395;-66
2022/12/01 09:31:15;;;;;;;7.25;1.65;;;17.50;94.80;;;;;;5020455;28;20026;-65
2022/12/01 09:33:42;;;;;;;8.93;1.65;;;17.50;95.10;;;;;;5010830;28;20045;-66
2022/12/01 09:36:10;;;;;;;8.63;1.83;;;17.40;95.30;;;;;;5010905;28;20151;-67
2022/12/01 09:38:38;;;;;;;7.80;1.98;;;17.30;95.60;;;;;;5014431;28;20494;-66
2022/12/01 09:41:22;;;;;;;8.73;2.45;;;17.20;95.90;;;;;;5016481;28;20107;-68
2022/12/01 09:44:19;;;;;;;12.38;2.90;;;17.10;96.50;;;;;;5016360;28;20056;-65
2022/12/01 09:46:52;;;;;;;10.75;1.90;;;17.10;97.20;;;;;;4998846;28;20084;-65
2022/12/01 09:49:24;;;;;;;11.25;2.97;;;17.00;97.50;;;;;;5007127;28;20084;-65
2022/12/01 09:51:53;;;;;;;17.65;3.25;;;16.90;97.70;;;;;;5011872;28;20534;-65
2022/12/01 09:54:21;;;;;;;9.85;2.22;;;16.90;98.50;;;;;;5022615;28;20033;-65
2022/12/01 09:56:52;;;;;;;14.10;1.85;;;16.80;98.50;;;;;;5014225;28;20103;-65
2022/12/01 09:59:30;;;;;;;11.73;2.47;;;16.70;98.80;;;;;;5022746;28;20166;-65
2022/12/01 10:02:22;;;;;;;12.48;2.90;;;16.60;99.30;;;;;;5013675;28;20018;-66
2022/12/01 10:04:51;;;;;;;10.35;2.28;;;16.50;99.80;;;;;;5027044;28;20033;-66
2022/12/01 10:07:37;;;;;;;11.85;1.90;;;16.40;99.90;;;;;;5016701;28;20025;-65
2022/12/01 10:10:07;;;;;;;18.05;2.72;;;16.30;99.90;;;;;;5026675;28;20025;-64
2022/12/01 10:12:35;;;;;;;9.40;2.00;;;16.20;99.90;;;;;;5017028;28;20498;-64
2022/12/01 10:15:32;;;;;;;12.50;1.98;;;16.20;99.90;;;;;;5021971;28;20037;-65
2022/12/01 10:18:17;;;;;;;11.57;2.50;;;16.10;99.90;;;;;;5004497;28;20030;-64
2022/12/01 10:21:07;;;;;;;10.13;2.08;;;16.10;99.90;;;;;;5012228;28;20028;-64
2022/12/01 10:23:47;;;;;;;11.52;2.17;;;16.00;99.90;;;;;;5008907;28;20033;-64
2022/12/01 10:26:27;;;;;;;7.10;1.58;;;16.00;99.90;;;;;;5004489;28;20029;-64
2022/12/01 10:29:09;;;;;;;11.15;2.13;;;15.80;99.90;;;;;;5007779;28;20149;-63
2022/12/01 10:32:06;;;;;;;8.77;1.67;;;15.80;99.90;;;;;;5007950;28;20030;-65
2022/12/01 10:34:39;;;;;;;14.88;2.35;;;15.80;99.90;;;;;;5003278;28;20038;-65
2022/12/01 10:37:12;;;;;;;10.48;2.28;;;15.70;99.90;;;;;;5006116;28;20092;-65
2022/12/01 10:39:45;;;;;;;7.93;1.88;;;15.60;99.90;;;;;;5020980;28;20564;-64
2022/12/01 10:42:27;;;;;;;12.70;2.42;;;15.50;99.90;;;;;;5009727;28;20036;-64
2022/12/01 10:44:56;;;;;;;7.55;1.50;;;15.40;99.90;;;;;;5003956;28;20647;-63
2022/12/01 10:47:27;;;;;;;9.35;2.00;;;15.40;99.90;;;;;;5009566;28;20060;-63
2022/12/01 10:49:55;;;;;;;7.72;1.83;;;15.40;99.90;;;;;;5010769;28;20148;-65
2022/12/01 10:52:33;;;;;;;11.88;2.75;;;15.30;99.90;;;;;;5011610;28;20132;-63
2022/12/01 10:55:03;;;;;;;9.98;2.22;;;15.20;99.90;;;;;;4997867;28;20072;-65
2022/12/01 10:57:31;;;;;;;8.63;2.35;;;15.20;99.90;;;;;;5010097;28;20025;-65
2022/12/01 11:00:08;;;;;;;13.25;2.85;;;15.10;99.90;;;;;;5005632;28;20062;-65
2022/12/01 11:02:35;;;;;;;11.15;2.58;;;15.10;99.90;;;;;;5011703;28;20033;-64
2022/12/01 11:05:07;;;;;;;11.88;1.98;;;15.10;99.90;;;;;;5005943;28;20116;-64
2022/12/01 11:07:42;;;;;;;13.25;3.15;;;15.00;99.90;;;;;;5004772;28;20030;-64
2022/12/01 11:10:28;;;;;;;9.18;2.10;;;15.00;99.90;;;;;;5007570;28;20021;-64
2022/12/01 11:13:01;;;;;;;9.98;2.13;;;14.90;99.90;;;;;;5013651;28;20030;-65
2022/12/01 11:15:38;;;;;;;16.27;2.88;;;14.80;99.90;;;;;;5003894;28;20395;-65
2022/12/01 11:18:39;;;;;;;13.27;2.92;;;14.80;99.90;;;;;;5009050;28;20033;-65
2022/12/01 11:21:13;;;;;;;10.77;2.45;;;14.80;99.90;;;;;;5006527;28;20214;-65
2022/12/01 11:23:51;;;;;;;7.55;2.58;;;14.80;99.90;;;;;;5016163;28;20041;-64
2022/12/01 11:26:21;;;;;;;10.75;2.13;;;14.70;99.90;;;;;;5010304;28;20762;-64
2022/12/01 11:29:00;;;;;;;11.38;3.20;;;14.60;99.90;;;;;;5008838;28;20033;-64
2022/12/01 11:31:50;;;;;;;7.55;1.98;;;14.70;99.90;;;;;;5009939;28;20022;-65
2022/12/01 11:34:25;;;;;;;17.17;3.05;;;14.60;99.90;;;;;;5005428;28;20128;-66
2022/12/01 11:37:01;;;;;;;14.15;2.38;;;14.60;99.90;;;;;;5025937;28;20386;-66
2022/12/01 11:39:31;;;;;;;8.73;3.30;;;14.50;99.90;;;;;;5010719;28;20449;-65
2022/12/01 11:42:05;;;;;;;13.30;3.20;;;14.50;99.90;;;;;;5011659;28;20049;-65
2022/12/01 11:44:34;;;;;;;19.23;5.82;;;14.50;99.90;;;;;;5010173;28;20053;-65
2022/12/01 11:47:22;;;;;;;25.02;4.43;;;14.50;99.90;;;;;;5009419;28;20030;-65
2022/12/01 11:50:29;;;;;;;18.52;4.30;;;14.50;99.90;;;;;;5012992;28;20029;-66
2022/12/01 11:52:56;;;;;;;20.77;3.63;;;14.50;99.90;;;;;;5014294;28;20038;-65
2022/12/01 11:55:26;;;;;;;15.88;3.80;;;14.50;99.90;;;;;;5011739;28;20033;-66
2022/12/01 11:57:57;;;;;;;19.70;3.40;;;14.50;99.90;;;;;;5011365;28;20406;-65
2022/12/01 12:00:33;;;;;;;12.38;2.50;;;14.60;99.90;;;;;;5015263;28;20125;-66
2022/12/01 12:03:22;;;;;;;8.82;2.50;;;14.60;99.90;;;;;;5015595;28;20046;-65
2022/12/01 12:06:12;;;;;;;13.32;2.55;;;14.60;99.90;;;;;;5015260;28;20034;-65
2022/12/01 12:08:45;;;;;;;14.55;3.17;;;14.60;99.90;;;;;;5008288;28;20513;-65
2022/12/01 12:11:20;;;;;;;12.52;2.75;;;14.60;99.90;;;;;;5013127;28;20477;-68
2022/12/01 12:14:13;;;;;;;17.02;3.83;;;14.50;99.90;;;;;;5026651;28;20572;-66
2022/12/01 12:16:50;;;;;;;14.93;3.15;;;14.50;99.90;;;;;;4992458;28;20690;-68
2022/12/01 12:19:23;;;;;;;11.30;2.83;;;14.50;99.90;;;;;;5005029;28;20487;-67
2022/12/01 12:22:27;;;;;;;12.38;2.45;;;14.50;99.90;;;;;;5010762;28;20033;-67
2022/12/01 12:25:28;;;;;;;12.70;2.55;;;14.50;99.90;;;;;;5012274;28;20038;-67
2022/12/01 12:28:19;;;;;;;9.63;2.38;;;14.60;99.90;;;;;;5011543;28;20025;-65
2022/12/01 12:30:52;;;;;;;9.90;2.83;;;14.50;99.90;;;;;;5006707;28;20026;-66
2022/12/01 12:33:25;;;;;;;14.20;3.13;;;14.50;99.90;;;;;;5014034;28;20124;-67
2022/12/01 12:35:59;;;;;;;8.68;1.80;;;14.40;99.90;;;;;;5005504;28;20450;-65
2022/12/01 12:38:52;;;;;;;10.65;2.78;;;14.40;99.90;;;;;;5012371;28;20042;-65
2022/12/01 12:41:34;;;;;;;13.43;2.20;;;14.40;99.90;;;;;;4991673;28;20041;-65
2022/12/01 12:44:35;;;;;;;8.68;1.88;;;14.40;99.90;;;;;;5024077;28;20073;-65
2022/12/01 12:47:36;;;;;;;9.38;1.50;;;14.40;99.90;;;;;;5014671;28;20022;-65
2022/12/01 12:50:20;;;;;;;9.50;2.42;;;14.40;99.90;;;;;;5008616;28;20030;-63
2022/12/01 12:52:56;;;;;;;9.75;2.13;;;14.40;99.90;;;;;;5004291;28;20084;-65
2022/12/01 12:55:32;;;;;;;10.30;1.88;;;14.40;99.90;;;;;;5011661;28;20041;-65
2022/12/01 12:58:24;;;;;;;8.18;2.10;;;14.50;99.90;;;;;;5009806;28;20147;-65
2022/12/01 13:01:13;;;;;;;14.45;2.53;;;14.40;99.90;;;;;;5011977;28;20026;-65
2022/12/01 13:03:56;;;;;;;11.65;2.17;;;14.50;99.90;;;;;;5011870;28;20054;-68
2022/12/01 13:06:44;;;;;;;11.65;3.00;;;14.50;99.90;;;;;;5012542;28;20022;-66
2022/12/01 13:09:17;;;;;;;21.75;2.42;;;14.50;99.90;;;;;;5009183;28;20026;-66
2022/12/01 13:12:07;;;;;;;17.27;2.95;;;14.60;99.90;;;;;;5009171;28;20029;-66
2022/12/01 13:14:49;;;;;;;12.57;3.00;;;14.70;99.90;;;;;;5002476;28;20064;-65
2022/12/01 13:17:38;;;;;;;9.38;3.45;;;14.80;99.90;;;;;;5009364;28;20029;-65
2022/12/01 13:20:14;;;;;;;17.13;2.83;;;14.90;99.90;;;;;;5007360;28;20430;-65